Time;durP1;ratioP1;P1;durP2;ratioP2;P2;SDS_P1;SDS_P2;PMS_P1;PMS_P2;Temp;Humidity;BMP_temperature;BMP_pressure;BME280_temperature;BME280_humidity;BME280_pressure;Samples;Min_cycle;Max_cycle;Signal;HPM_P1;HPM_P2
2022/01/03 00:00:41;;;;;;;14.77;4.05;;;11.20;83.00;;;;;;5067422;28;20530;-73
2022/01/03 00:03:10;;;;;;;15.60;3.08;;;11.20;83.10;;;;;;5067744;28;20472;-73
2022/01/03 00:05:37;;;;;;;13.98;3.22;;;11.20;83.10;;;;;;5048495;28;20098;-73
2022/01/03 00:08:05;;;;;;;12.55;3.05;;;11.20;83.10;;;;;;5047296;28;20040;-74
2022/01/03 00:10:33;;;;;;;17.42;2.88;;;11.20;83.10;;;;;;5047777;28;20584;-74
2022/01/03 00:13:00;;;;;;;18.55;3.28;;;11.10;82.90;;;;;;5047270;28;20043;-74
2022/01/03 00:15:27;;;;;;;15.77;3.38;;;11.20;83.10;;;;;;5046548;28;20025;-73
2022/01/03 00:17:53;;;;;;;16.63;4.38;;;11.20;83.10;;;;;;5045475;28;20029;-74
2022/01/03 00:20:21;;;;;;;15.10;2.58;;;11.20;83.00;;;;;;5046030;28;20559;-74
2022/01/03 00:23:04;;;;;;;11.95;2.90;;;11.20;83.00;;;;;;5046253;28;20409;-74
2022/01/03 00:25:34;;;;;;;13.18;2.95;;;11.10;82.90;;;;;;5045334;28;20088;-73
2022/01/03 00:28:22;;;;;;;14.57;4.60;;;11.10;82.80;;;;;;5028374;28;20025;-73
2022/01/03 00:30:53;;;;;;;11.88;4.28;;;11.10;82.90;;;;;;5045460;28;20033;-74
2022/01/03 00:33:20;;;;;;;15.60;3.70;;;11.10;82.90;;;;;;5028137;28;20251;-74
2022/01/03 00:35:53;;;;;;;11.20;2.80;;;11.10;82.90;;;;;;5045596;28;20020;-74
2022/01/03 00:38:21;;;;;;;14.05;2.78;;;11.10;82.90;;;;;;5045372;28;20024;-74
2022/01/03 00:40:49;;;;;;;13.43;3.45;;;11.10;82.90;;;;;;5028653;28;20044;-74
2022/01/03 00:43:18;;;;;;;17.20;3.30;;;11.10;83.00;;;;;;5028529;28;20037;-74
2022/01/03 00:45:44;;;;;;;11.02;2.58;;;11.10;83.00;;;;;;5048191;28;20055;-74
2022/01/03 00:48:11;;;;;;;13.40;3.15;;;11.10;82.90;;;;;;5047954;28;20776;-74
2022/01/03 00:50:37;;;;;;;12.50;2.55;;;11.10;82.90;;;;;;5030828;28;20437;-74
2022/01/03 00:53:05;;;;;;;17.25;3.13;;;11.10;83.00;;;;;;5047888;28;20044;-74
2022/01/03 00:55:32;;;;;;;17.02;3.05;;;11.10;83.00;;;;;;5027815;28;20397;-74
2022/01/03 00:58:12;;;;;;;14.23;3.25;;;11.10;83.00;;;;;;5045294;28;20061;-74
2022/01/03 01:00:41;;;;;;;15.20;4.38;;;11.20;83.20;;;;;;5046320;28;20277;-74
2022/01/03 01:03:18;;;;;;;14.35;3.63;;;11.20;83.10;;;;;;5045395;28;20025;-74
2022/01/03 01:05:49;;;;;;;15.02;3.15;;;11.20;83.10;;;;;;5044681;28;20189;-74
2022/01/03 01:08:20;;;;;;;18.48;3.85;;;11.20;83.10;;;;;;5049474;28;20028;-74
2022/01/03 01:10:46;;;;;;;12.55;2.42;;;11.20;83.10;;;;;;5047529;28;20028;-74
2022/01/03 01:13:14;;;;;;;14.80;2.65;;;11.20;83.10;;;;;;5065424;28;20082;-74
2022/01/03 01:15:42;;;;;;;13.77;2.85;;;11.20;83.00;;;;;;5047332;28;20491;-74
2022/01/03 01:18:10;;;;;;;12.55;2.67;;;11.20;83.00;;;;;;5047808;28;20082;-74
2022/01/03 01:20:41;;;;;;;14.15;4.43;;;11.20;83.00;;;;;;5047488;28;20068;-74
2022/01/03 01:23:10;;;;;;;15.20;3.03;;;11.20;83.50;;;;;;5047582;28;20060;-74
2022/01/03 01:28:11;;;;;;;8.63;2.72;;;11.20;83.00;;;;;;5047330;28;20031;-74
2022/01/03 01:30:38;;;;;;;14.27;3.83;;;11.20;82.90;;;;;;5067220;28;20351;-73
2022/01/03 01:33:16;;;;;;;11.48;2.38;;;11.20;82.90;;;;;;5067918;28;20036;-74
2022/01/03 01:35:53;;;;;;;12.05;2.65;;;11.20;82.90;;;;;;5067394;28;20495;-74
2022/01/03 01:38:29;;;;;;;19.42;2.95;;;11.20;82.90;;;;;;5051155;28;20115;-74
2022/01/03 01:40:58;;;;;;;10.27;2.33;;;11.20;82.90;;;;;;5051229;28;20721;-74
2022/01/03 01:43:57;;;;;;;16.83;3.28;;;11.20;82.90;;;;;;5050949;28;20028;-74
2022/01/03 01:46:24;;;;;;;12.77;3.35;;;11.20;83.40;;;;;;5047637;28;20048;-74
2022/01/03 01:49:04;;;;;;;10.48;3.10;;;11.20;82.90;;;;;;5067472;28;20483;-74
2022/01/03 01:51:36;;;;;;;12.13;3.35;;;11.20;82.90;;;;;;5051721;28;20024;-74
2022/01/03 01:54:05;;;;;;;20.05;3.50;;;11.20;82.90;;;;;;5050722;28;20418;-74
2022/01/03 01:56:48;;;;;;;10.93;2.75;;;11.20;82.90;;;;;;5050813;28;20455;-74
2022/01/03 01:59:39;;;;;;;17.27;3.25;;;11.20;82.90;;;;;;5050004;28;20032;-75
2022/01/03 02:02:08;;;;;;;15.13;4.85;;;11.20;82.80;;;;;;5062226;28;20124;-74
2022/01/03 02:04:48;;;;;;;11.48;2.50;;;11.20;82.80;;;;;;5040858;28;20458;-74
2022/01/03 02:07:37;;;;;;;15.23;3.20;;;11.20;82.80;;;;;;5050373;28;20044;-74
2022/01/03 02:10:10;;;;;;;11.05;3.50;;;11.20;82.70;;;;;;5050017;28;20078;-75
2022/01/03 02:12:41;;;;;;;14.18;3.10;;;11.20;82.70;;;;;;5050580;28;20051;-75
2022/01/03 02:15:13;;;;;;;13.70;3.40;;;11.10;82.50;;;;;;5050302;28;20107;-74
2022/01/03 02:17:40;;;;;;;12.90;3.15;;;11.10;82.50;;;;;;5066706;28;20484;-74
2022/01/03 02:20:21;;;;;;;20.10;4.13;;;11.10;82.50;;;;;;5066944;28;20075;-74
2022/01/03 02:22:50;;;;;;;13.48;2.97;;;11.10;82.50;;;;;;5050301;28;20036;-74
2022/01/03 02:25:21;;;;;;;17.23;3.20;;;11.10;82.60;;;;;;5050491;28;20048;-74
2022/01/03 02:27:49;;;;;;;12.55;3.92;;;11.10;82.60;;;;;;5068334;28;20116;-74
2022/01/03 02:30:23;;;;;;;16.98;3.30;;;11.00;82.40;;;;;;5065263;28;20070;-74
2022/01/03 02:32:49;;;;;;;15.45;4.10;;;11.00;83.00;;;;;;5044434;28;20458;-74
2022/01/03 02:35:16;;;;;;;16.75;4.18;;;11.00;82.40;;;;;;5060978;28;20387;-74
2022/01/03 02:37:44;;;;;;;8.88;2.40;;;11.00;82.70;;;;;;5083596;28;20495;-74
2022/01/03 02:40:11;;;;;;;14.95;4.32;;;10.90;82.30;;;;;;5050967;28;20523;-74
2022/01/03 02:42:39;;;;;;;19.65;3.90;;;10.90;82.30;;;;;;5031992;28;20033;-74
2022/01/03 02:45:08;;;;;;;15.30;4.13;;;10.90;82.30;;;;;;5069400;28;20051;-74
2022/01/03 02:47:35;;;;;;;16.08;4.15;;;10.90;82.30;;;;;;5050671;28;20040;-74
2022/01/03 02:50:02;;;;;;;16.27;4.40;;;10.90;82.30;;;;;;5052750;28;20037;-74
2022/01/03 02:52:29;;;;;;;12.63;3.95;;;10.90;82.40;;;;;;5035867;28;20119;-73
2022/01/03 02:54:56;;;;;;;16.90;2.67;;;10.90;82.40;;;;;;5052459;28;20498;-74
2022/01/03 02:57:23;;;;;;;13.77;2.92;;;10.90;82.40;;;;;;5053819;28;20032;-74
2022/01/03 02:59:57;;;;;;;13.88;2.78;;;10.80;82.20;;;;;;5051629;28;20473;-74
2022/01/03 03:02:26;;;;;;;16.23;3.00;;;10.80;82.20;;;;;;5035674;28;20098;-74
2022/01/03 03:04:58;;;;;;;16.10;3.55;;;10.80;82.20;;;;;;5052108;28;20041;-74
2022/01/03 03:07:27;;;;;;;20.65;4.32;;;10.80;82.30;;;;;;5051942;28;20036;-75
2022/01/03 03:09:53;;;;;;;11.55;2.80;;;10.80;82.30;;;;;;5046492;28;20113;-74
2022/01/03 03:12:21;;;;;;;15.65;3.35;;;10.70;82.10;;;;;;5059996;28;20025;-74
2022/01/03 03:14:47;;;;;;;15.68;3.10;;;10.70;82.10;;;;;;5051126;28;20083;-74
2022/01/03 03:17:14;;;;;;;12.90;3.20;;;10.70;82.10;;;;;;5052496;28;20025;-74
2022/01/03 03:20:03;;;;;;;12.50;3.75;;;10.70;82.20;;;;;;5034150;28;20029;-73
2022/01/03 03:22:32;;;;;;;11.43;3.42;;;10.70;82.20;;;;;;5034260;28;20481;-74
2022/01/03 03:25:10;;;;;;;10.18;2.28;;;10.70;82.10;;;;;;5034128;28;20114;-74
2022/01/03 03:27:43;;;;;;;14.70;3.70;;;10.60;82.00;;;;;;5051992;28;20025;-74
2022/01/03 03:30:12;;;;;;;15.07;3.97;;;10.60;82.10;;;;;;5033716;28;20415;-74
2022/01/03 03:32:38;;;;;;;15.13;2.85;;;10.60;82.10;;;;;;5033855;28;20032;-74
2022/01/03 03:35:05;;;;;;;14.73;4.95;;;10.60;82.10;;;;;;5051389;28;20120;-73
2022/01/03 03:37:31;;;;;;;13.88;3.50;;;10.50;81.90;;;;;;5033991;28;20494;-73
2022/01/03 03:39:57;;;;;;;12.30;4.32;;;10.50;81.90;;;;;;5033597;28;20492;-73
2022/01/03 03:42:23;;;;;;;10.85;2.92;;;10.50;82.00;;;;;;5051380;28;20039;-74
2022/01/03 03:44:49;;;;;;;14.07;2.90;;;10.50;82.50;;;;;;5033648;28;20060;-74
2022/01/03 03:47:15;;;;;;;17.38;3.70;;;10.50;82.00;;;;;;5033421;28;20079;-74
2022/01/03 03:49:42;;;;;;;11.43;2.95;;;10.50;82.10;;;;;;5033536;28;20029;-73
2022/01/03 03:52:09;;;;;;;12.30;2.65;;;10.50;82.10;;;;;;5032866;28;20044;-74
2022/01/03 03:54:35;;;;;;;9.75;3.60;;;10.50;82.10;;;;;;5051303;28;20455;-73
2022/01/03 03:57:05;;;;;;;18.55;3.53;;;10.50;82.10;;;;;;5051506;28;20029;-74
2022/01/03 03:59:32;;;;;;;14.80;3.95;;;10.40;81.90;;;;;;5032898;28;20117;-74
2022/01/03 04:01:58;;;;;;;13.80;3.42;;;10.50;82.10;;;;;;5033397;28;20477;-74
2022/01/03 04:04:25;;;;;;;12.20;3.35;;;10.40;82.00;;;;;;5033441;28;20037;-74
2022/01/03 04:06:51;;;;;;;16.58;3.75;;;10.40;81.90;;;;;;5051229;28;20029;-73
2022/01/03 04:09:18;;;;;;;14.68;4.55;;;10.40;82.00;;;;;;5049916;28;20025;-73
2022/01/03 04:11:44;;;;;;;14.80;2.72;;;10.40;81.90;;;;;;5033385;28;20381;-73
2022/01/03 04:14:10;;;;;;;13.60;4.88;;;10.40;82.00;;;;;;5033239;28;20032;-74
2022/01/03 04:16:37;;;;;;;13.82;2.92;;;10.40;82.00;;;;;;5049702;28;20063;-74
2022/01/03 04:19:05;;;;;;;13.77;2.45;;;10.40;82.00;;;;;;5033550;28;20033;-74
2022/01/03 04:21:32;;;;;;;14.40;2.85;;;10.40;82.10;;;;;;5053586;28;20472;-74
2022/01/03 04:23:58;;;;;;;16.77;3.95;;;10.40;82.10;;;;;;5035986;28;20116;-74
2022/01/03 04:26:24;;;;;;;18.30;3.08;;;10.40;82.10;;;;;;5035537;28;20040;-73
2022/01/03 04:28:51;;;;;;;19.38;4.95;;;10.40;82.10;;;;;;5050762;28;20036;-74
2022/01/03 04:31:17;;;;;;;16.83;2.45;;;10.40;82.10;;;;;;5034380;28;20037;-74
2022/01/03 04:33:46;;;;;;;20.00;2.88;;;10.40;82.10;;;;;;5051629;28;20037;-74
2022/01/03 04:36:12;;;;;;;18.90;3.45;;;10.40;82.10;;;;;;5033513;28;20029;-74
2022/01/03 04:38:38;;;;;;;17.95;3.20;;;10.40;82.10;;;;;;5033696;28;20048;-74
2022/01/03 04:41:04;;;;;;;16.27;3.08;;;10.50;82.30;;;;;;5050971;28;20359;-73
2022/01/03 04:43:33;;;;;;;11.55;3.25;;;10.40;82.10;;;;;;5033134;28;20115;-74
2022/01/03 04:45:59;;;;;;;11.98;2.47;;;10.50;82.30;;;;;;5032709;28;20037;-74
2022/01/03 04:48:25;;;;;;;15.20;3.15;;;10.50;82.30;;;;;;5050331;28;20163;-73
2022/01/03 04:50:52;;;;;;;18.70;3.70;;;10.50;82.30;;;;;;5050918;28;20124;-74
2022/01/03 04:53:18;;;;;;;16.08;3.00;;;10.50;82.30;;;;;;5050825;28;20033;-74
2022/01/03 04:55:44;;;;;;;16.02;3.38;;;10.50;82.30;;;;;;5032420;28;20259;-73
2022/01/03 04:58:11;;;;;;;12.35;2.55;;;10.50;82.30;;;;;;5032467;28;20491;-74
2022/01/03 05:00:38;;;;;;;9.85;2.50;;;10.60;82.50;;;;;;5032187;28;20036;-74
2022/01/03 05:03:05;;;;;;;11.68;2.75;;;10.60;82.50;;;;;;5034291;28;20059;-74
2022/01/03 05:05:32;;;;;;;16.83;4.05;;;10.60;82.50;;;;;;5036635;28;20048;-74
2022/01/03 05:07:58;;;;;;;16.77;3.30;;;10.60;82.50;;;;;;5053188;28;20032;-74
2022/01/03 05:10:24;;;;;;;15.15;2.95;;;10.60;82.50;;;;;;5036593;28;20067;-74
2022/01/03 05:12:51;;;;;;;14.15;3.08;;;10.60;82.40;;;;;;5053447;28;20106;-74
2022/01/03 05:15:17;;;;;;;12.40;2.33;;;10.60;82.40;;;;;;5036866;28;20488;-74
2022/01/03 05:17:43;;;;;;;13.30;3.00;;;10.60;82.40;;;;;;5052716;28;20476;-74
2022/01/03 05:20:10;;;;;;;15.77;3.88;;;10.60;82.40;;;;;;5036845;28;20376;-73
2022/01/03 05:22:36;;;;;;;10.55;2.53;;;10.60;82.40;;;;;;5054051;28;20029;-74
2022/01/03 05:25:02;;;;;;;15.38;3.00;;;10.60;82.40;;;;;;5053956;28;20140;-73
2022/01/03 05:27:29;;;;;;;10.60;3.35;;;10.60;82.40;;;;;;5053945;28;20111;-73
2022/01/03 05:29:56;;;;;;;18.98;3.05;;;10.60;82.40;;;;;;5052134;28;20036;-73
2022/01/03 05:32:22;;;;;;;15.07;2.83;;;10.60;82.30;;;;;;5036402;28;20032;-73
2022/01/03 05:34:49;;;;;;;15.30;3.40;;;10.60;82.30;;;;;;5036258;28;20036;-73
2022/01/03 05:37:15;;;;;;;16.70;4.57;;;10.60;82.30;;;;;;5054082;28;20392;-74
2022/01/03 05:39:41;;;;;;;13.60;3.25;;;10.60;82.30;;;;;;5054069;28;20408;-73
2022/01/03 05:42:07;;;;;;;14.27;3.35;;;10.60;82.40;;;;;;5052389;28;20052;-74
2022/01/03 05:44:33;;;;;;;17.60;2.78;;;10.60;82.40;;;;;;5036189;28;20029;-73
2022/01/03 05:46:59;;;;;;;12.88;3.05;;;10.60;82.40;;;;;;5052424;28;20049;-74
2022/01/03 05:49:26;;;;;;;14.13;2.78;;;10.60;82.40;;;;;;5067570;28;20028;-73
2022/01/03 05:51:52;;;;;;;16.42;3.72;;;10.60;82.30;;;;;;5068850;28;20044;-73
2022/01/03 05:54:18;;;;;;;13.32;2.97;;;10.60;82.30;;;;;;5052282;28;20119;-73
2022/01/03 05:56:45;;;;;;;13.38;2.33;;;10.60;82.30;;;;;;5069965;28;20024;-74
2022/01/03 05:59:12;;;;;;;17.20;3.22;;;10.60;82.30;;;;;;5051888;28;20028;-74
2022/01/03 06:01:40;;;;;;;11.48;2.95;;;10.60;82.30;;;;;;5052098;28;20111;-73
2022/01/03 06:07:05;;;;;;;14.15;3.17;;;10.60;82.30;;;;;;5024867;28;20053;-73
2022/01/03 06:09:36;;;;;;;13.55;2.90;;;10.60;82.20;;;;;;5063954;28;20457;-73
2022/01/03 06:12:04;;;;;;;13.13;2.72;;;10.60;82.20;;;;;;5071628;28;20582;-73
2022/01/03 06:14:33;;;;;;;9.82;3.42;;;10.60;82.20;;;;;;5038177;28;20098;-73
2022/01/03 06:17:00;;;;;;;14.95;2.80;;;10.60;82.20;;;;;;5027429;28;20029;-73
2022/01/03 06:19:27;;;;;;;17.27;3.90;;;10.60;82.20;;;;;;5037098;28;20025;-74
2022/01/03 06:21:54;;;;;;;16.77;3.10;;;10.70;82.30;;;;;;5047809;28;20024;-74
2022/01/03 06:24:23;;;;;;;10.00;3.13;;;10.70;82.30;;;;;;5064717;28;20033;-73
2022/01/03 06:26:51;;;;;;;16.52;2.95;;;10.70;82.20;;;;;;5041139;28;20032;-73
2022/01/03 06:29:19;;;;;;;13.50;2.83;;;10.70;82.20;;;;;;5038058;28;20095;-73
2022/01/03 06:31:47;;;;;;;15.75;3.03;;;10.70;82.20;;;;;;5057803;28;20332;-73
2022/01/03 06:34:15;;;;;;;12.02;2.50;;;10.70;82.20;;;;;;5057650;28;20025;-72
2022/01/03 06:36:41;;;;;;;13.32;3.45;;;10.70;82.20;;;;;;5067186;28;20317;-72
2022/01/03 06:39:11;;;;;;;9.52;2.80;;;10.70;82.10;;;;;;5050022;28;20028;-73
2022/01/03 06:41:38;;;;;;;11.70;2.70;;;10.70;82.10;;;;;;5050212;28;20035;-73
2022/01/03 06:44:05;;;;;;;14.55;2.50;;;10.70;82.00;;;;;;5066243;28;20025;-73
2022/01/03 06:46:32;;;;;;;11.50;2.38;;;10.70;82.00;;;;;;5049995;28;20044;-72
2022/01/03 06:49:00;;;;;;;13.52;3.95;;;10.80;82.20;;;;;;5066965;28;20037;-73
2022/01/03 06:51:33;;;;;;;14.82;3.10;;;10.80;82.10;;;;;;5049701;28;20495;-72
2022/01/03 06:54:04;;;;;;;15.60;3.38;;;10.70;81.90;;;;;;5066092;28;20028;-72
2022/01/03 06:56:30;;;;;;;19.52;4.13;;;10.80;82.10;;;;;;5049627;28;20917;-73
2022/01/03 06:58:56;;;;;;;14.10;2.88;;;10.80;82.10;;;;;;5067263;28;20035;-73
2022/01/03 07:01:23;;;;;;;14.45;3.08;;;10.80;82.10;;;;;;5049178;28;20036;-73
2022/01/03 07:03:49;;;;;;;9.38;2.13;;;10.80;82.00;;;;;;5045469;28;20825;-74
2022/01/03 07:06:15;;;;;;;10.55;2.28;;;10.80;82.00;;;;;;5051109;28;20044;-73
2022/01/03 07:08:41;;;;;;;8.82;2.00;;;10.80;82.00;;;;;;5066552;28;20048;-73
2022/01/03 07:11:07;;;;;;;11.18;3.10;;;10.80;82.00;;;;;;5049179;28;20608;-73
2022/01/03 07:13:42;;;;;;;13.10;2.53;;;10.80;82.00;;;;;;5067109;28;20063;-73
2022/01/03 07:18:56;;;;;;;12.52;2.20;;;10.80;82.00;;;;;;5067011;28;20036;-73
2022/01/03 07:21:24;;;;;;;9.65;3.33;;;10.90;82.10;;;;;;5067293;28;20028;-73
2022/01/03 07:23:50;;;;;;;9.32;2.92;;;10.80;81.90;;;;;;5067039;28;20464;-74
2022/01/03 07:26:16;;;;;;;8.82;2.30;;;10.90;82.00;;;;;;5066028;28;20040;-73
2022/01/03 07:28:43;;;;;;;12.88;1.95;;;10.90;82.00;;;;;;5067071;28;20039;-73
2022/01/03 07:31:08;;;;;;;12.63;2.78;;;10.90;82.00;;;;;;5066863;28;20486;-73
2022/01/03 07:33:34;;;;;;;14.25;3.03;;;10.90;82.10;;;;;;5066102;28;20086;-73
2022/01/03 07:36:00;;;;;;;14.25;3.13;;;11.00;82.30;;;;;;5067380;28;20483;-73
2022/01/03 07:38:27;;;;;;;18.27;3.42;;;11.00;82.30;;;;;;5066826;28;20520;-74
2022/01/03 07:40:53;;;;;;;14.63;3.25;;;11.10;82.40;;;;;;5067686;28;20063;-73
2022/01/03 07:43:19;;;;;;;13.63;3.35;;;11.10;82.30;;;;;;5066718;28;20085;-73
2022/01/03 07:45:45;;;;;;;11.10;2.65;;;11.10;82.30;;;;;;5048707;28;20097;-73
2022/01/03 07:48:11;;;;;;;10.18;2.65;;;11.10;82.20;;;;;;5066206;28;20052;-73
2022/01/03 07:50:37;;;;;;;13.15;2.70;;;11.10;82.20;;;;;;5067502;28;20088;-73
2022/01/03 07:53:04;;;;;;;14.27;2.50;;;11.10;82.20;;;;;;5050940;28;20048;-73
2022/01/03 07:55:30;;;;;;;12.75;2.95;;;11.10;82.10;;;;;;5069358;28;20559;-73
2022/01/03 07:57:56;;;;;;;9.45;3.20;;;11.10;82.10;;;;;;5035228;28;20031;-73
2022/01/03 08:00:23;;;;;;;10.57;2.92;;;11.10;82.10;;;;;;5068916;28;20388;-73
2022/01/03 08:02:49;;;;;;;11.98;2.90;;;11.10;82.20;;;;;;5049512;28;20032;-73
2022/01/03 08:05:15;;;;;;;12.00;3.95;;;11.10;82.10;;;;;;5047737;28;20036;-72
2022/01/03 08:07:43;;;;;;;12.40;2.80;;;11.10;82.10;;;;;;5029318;28;20033;-73
2022/01/03 08:10:11;;;;;;;11.20;3.20;;;11.10;82.10;;;;;;5028430;28;20060;-73
2022/01/03 08:12:39;;;;;;;11.25;2.33;;;11.20;82.80;;;;;;5046438;28;20975;-73
2022/01/03 08:15:08;;;;;;;8.93;2.78;;;11.10;82.10;;;;;;5044024;28;20033;-72
2022/01/03 08:17:35;;;;;;;12.45;2.33;;;11.10;82.10;;;;;;5065643;28;20058;-73
2022/01/03 08:20:04;;;;;;;14.35;2.90;;;11.10;82.10;;;;;;5048716;28;20035;-72
2022/01/03 08:22:30;;;;;;;7.80;1.73;;;11.10;82.10;;;;;;5048484;28;20089;-72
2022/01/03 08:24:56;;;;;;;12.48;2.55;;;11.10;82.10;;;;;;5066111;28;20028;-73
2022/01/03 08:27:22;;;;;;;16.27;3.15;;;11.20;83.10;;;;;;5066272;28;20124;-73
2022/01/03 08:29:48;;;;;;;11.90;2.67;;;11.40;83.70;;;;;;5047783;28;20107;-72
2022/01/03 08:32:14;;;;;;;9.48;2.50;;;11.60;83.90;;;;;;5065692;28;20140;-73
2022/01/03 08:34:40;;;;;;;14.27;2.72;;;11.70;84.20;;;;;;5065364;28;20078;-73
2022/01/03 08:37:06;;;;;;;12.75;2.45;;;11.90;84.40;;;;;;5065689;28;20021;-74
2022/01/03 08:39:32;;;;;;;7.95;2.45;;;12.00;84.70;;;;;;5065408;28;20438;-73
2022/01/03 08:41:58;;;;;;;15.20;3.33;;;12.30;85.30;;;;;;5065490;28;20058;-73
2022/01/03 08:44:24;;;;;;;10.85;2.30;;;12.50;85.50;;;;;;5065478;28;20059;-73
2022/01/03 08:46:51;;;;;;;10.70;2.45;;;12.70;85.60;;;;;;5048496;28;20098;-74
2022/01/03 08:49:17;;;;;;;10.75;2.38;;;12.90;85.70;;;;;;5065317;28;20120;-74
2022/01/03 08:51:43;;;;;;;11.48;2.30;;;13.10;85.60;;;;;;5047671;28;20028;-74
2022/01/03 08:54:09;;;;;;;10.50;1.55;;;13.30;85.70;;;;;;5065412;28;20115;-74
2022/01/03 08:56:37;;;;;;;16.60;2.78;;;13.40;85.80;;;;;;5065524;28;20108;-73
2022/01/03 08:59:03;;;;;;;13.85;2.85;;;13.50;85.90;;;;;;5047514;28;20036;-74
2022/01/03 09:01:29;;;;;;;10.95;1.92;;;13.70;86.10;;;;;;5065400;28;20405;-74
2022/01/03 09:03:55;;;;;;;24.38;3.17;;;13.90;86.20;;;;;;5047090;28;20112;-73
2022/01/03 09:06:21;;;;;;;11.00;2.05;;;14.00;86.10;;;;;;5065309;28;20132;-74
2022/01/03 09:08:47;;;;;;;12.23;2.05;;;14.10;86.00;;;;;;5047800;28;20060;-75
2022/01/03 09:11:14;;;;;;;7.93;1.48;;;14.20;85.80;;;;;;5047823;28;20190;-73
2022/01/03 09:13:40;;;;;;;10.15;2.42;;;14.30;85.70;;;;;;5065903;28;20456;-73
2022/01/03 09:16:07;;;;;;;9.50;1.70;;;14.30;85.40;;;;;;5048288;28;20029;-73
2022/01/03 09:18:35;;;;;;;10.13;2.28;;;14.30;85.80;;;;;;5065591;28;20035;-73
2022/01/03 09:21:01;;;;;;;12.07;2.63;;;14.20;85.10;;;;;;5047897;28;20037;-74
2022/01/03 09:23:32;;;;;;;11.65;3.10;;;14.20;85.30;;;;;;5065007;28;20400;-73
2022/01/03 09:28:49;;;;;;;6.97;2.28;;;14.00;85.20;;;;;;5055193;28;20032;-74
2022/01/03 09:31:16;;;;;;;7.35;1.60;;;13.90;85.20;;;;;;5047372;28;20464;-74
2022/01/03 09:33:43;;;;;;;9.93;1.77;;;13.80;85.20;;;;;;5046962;28;20103;-73
2022/01/03 09:36:09;;;;;;;10.20;2.70;;;13.70;85.20;;;;;;5066037;28;20068;-73
2022/01/03 09:38:36;;;;;;;19.85;4.60;;;13.60;85.20;;;;;;5065149;28;20029;-73
2022/01/03 09:41:05;;;;;;;10.68;1.85;;;13.60;85.40;;;;;;5065400;28;20511;-73
2022/01/03 09:43:48;;;;;;;6.28;1.55;;;13.50;85.30;;;;;;5065443;28;20112;-74
2022/01/03 09:46:19;;;;;;;5.00;1.35;;;13.40;85.10;;;;;;5044604;28;20555;-74
2022/01/03 09:48:52;;;;;;;12.20;3.40;;;13.50;85.40;;;;;;5054979;28;20435;-75
2022/01/03 09:51:29;;;;;;;5.63;2.40;;;13.40;85.30;;;;;;5061940;28;20476;-74
2022/01/03 09:53:59;;;;;;;6.18;1.40;;;13.30;85.10;;;;;;5056312;28;20291;-74
2022/01/03 09:56:27;;;;;;;9.07;2.35;;;13.30;85.20;;;;;;5069367;28;20035;-74
2022/01/03 09:58:54;;;;;;;9.23;2.03;;;13.30;85.30;;;;;;5066273;28;20043;-75
2022/01/03 10:01:20;;;;;;;18.13;3.88;;;13.30;85.30;;;;;;5068918;28;20399;-75
2022/01/03 10:03:49;;;;;;;8.80;1.52;;;13.30;85.30;;;;;;5043330;28;20037;-74
2022/01/03 10:06:19;;;;;;;14.23;1.70;;;13.30;85.20;;;;;;5051404;28;20087;-75
2022/01/03 10:08:46;;;;;;;6.90;1.83;;;13.30;85.20;;;;;;5048875;28;20036;-75
2022/01/03 10:11:13;;;;;;;7.68;1.85;;;13.30;85.20;;;;;;5049186;28;20476;-75
2022/01/03 10:13:39;;;;;;;9.43;1.77;;;13.30;85.10;;;;;;5048484;28;20039;-74
2022/01/03 10:16:05;;;;;;;12.50;2.50;;;13.30;85.00;;;;;;5057850;28;20043;-74
2022/01/03 10:18:33;;;;;;;10.50;1.75;;;13.30;85.00;;;;;;5067794;28;20024;-74
2022/01/03 10:21:00;;;;;;;6.63;1.90;;;13.30;84.90;;;;;;5079291;28;20103;-74
2022/01/03 10:23:27;;;;;;;8.68;2.65;;;13.30;84.80;;;;;;5050363;28;20025;-74
2022/01/03 10:25:53;;;;;;;8.13;2.60;;;13.30;84.80;;;;;;5068040;28;20186;-74
2022/01/03 10:28:28;;;;;;;8.32;2.25;;;13.30;84.80;;;;;;5067944;28;20131;-74
2022/01/03 10:30:54;;;;;;;6.30;2.10;;;13.30;85.10;;;;;;5049712;28;20039;-74
2022/01/03 10:33:22;;;;;;;9.85;2.53;;;13.40;84.80;;;;;;5068043;28;20392;-74
2022/01/03 10:35:56;;;;;;;6.97;1.55;;;13.30;84.50;;;;;;5067865;28;20154;-74
2022/01/03 10:38:35;;;;;;;5.90;1.50;;;13.40;84.60;;;;;;5067870;28;20028;-74
2022/01/03 10:41:11;;;;;;;5.15;2.25;;;13.30;84.30;;;;;;5067416;28;20056;-74
2022/01/03 10:43:37;;;;;;;9.77;2.47;;;13.40;84.40;;;;;;5067484;28;20028;-75
2022/01/03 10:46:21;;;;;;;6.85;2.17;;;13.40;84.40;;;;;;5067716;28;20383;-75
2022/01/03 10:48:47;;;;;;;9.65;2.53;;;13.40;84.30;;;;;;5049553;28;20595;-74
2022/01/03 10:51:25;;;;;;;8.95;1.67;;;13.50;84.40;;;;;;5067276;28;20604;-74
2022/01/03 10:53:53;;;;;;;6.13;1.52;;;13.50;84.30;;;;;;5059581;28;20025;-74
2022/01/03 10:56:33;;;;;;;8.02;1.60;;;13.50;84.20;;;;;;5047891;28;20653;-73
2022/01/03 10:59:02;;;;;;;6.25;2.20;;;13.60;84.30;;;;;;5059998;28;20037;-73
2022/01/03 11:01:31;;;;;;;11.35;3.50;;;13.60;84.20;;;;;;5066807;28;20081;-74
2022/01/03 11:04:01;;;;;;;6.95;1.83;;;13.60;84.10;;;;;;5066328;28;20039;-74
2022/01/03 11:11:52;;;;;;;8.43;1.88;;;13.80;84.20;;;;;;5050733;28;20037;-73
2022/01/03 11:14:38;;;;;;;10.15;2.08;;;13.80;84.00;;;;;;5066665;28;20025;-76
2022/01/03 11:17:25;;;;;;;7.60;1.77;;;13.80;83.80;;;;;;5064976;28;20230;-74
2022/01/03 11:19:51;;;;;;;7.35;1.80;;;13.80;83.60;;;;;;5066820;28;20028;-74
2022/01/03 11:22:44;;;;;;;10.60;2.85;;;13.90;83.80;;;;;;5066500;28;20036;-74
2022/01/03 11:25:11;;;;;;;9.43;2.95;;;13.90;83.60;;;;;;5064829;28;20040;-75
2022/01/03 11:27:40;;;;;;;8.60;2.20;;;14.00;83.70;;;;;;5064484;28;20025;-75
2022/01/03 11:30:08;;;;;;;10.38;2.42;;;14.00;83.60;;;;;;5038174;28;20135;-76
2022/01/03 11:32:38;;;;;;;15.32;3.38;;;13.90;83.40;;;;;;5047146;28;20333;-75
2022/01/03 11:35:05;;;;;;;7.28;2.47;;;14.00;83.50;;;;;;5052060;28;20076;-75
2022/01/03 11:37:35;;;;;;;14.07;3.90;;;14.10;83.50;;;;;;5048272;28;20111;-75
2022/01/03 11:40:04;;;;;;;15.63;2.75;;;14.10;83.30;;;;;;5048599;28;20033;-75
2022/01/03 11:42:33;;;;;;;14.23;3.00;;;14.20;83.30;;;;;;5049008;28;20028;-75
2022/01/03 11:45:00;;;;;;;11.30;2.10;;;14.20;83.10;;;;;;5047865;28;20119;-74
2022/01/03 11:47:30;;;;;;;8.10;1.92;;;14.30;83.10;;;;;;5050408;28;20056;-75
2022/01/03 11:49:57;;;;;;;9.23;2.25;;;14.30;83.10;;;;;;5050009;28;20033;-74
2022/01/03 11:52:24;;;;;;;10.70;3.92;;;14.40;83.10;;;;;;5066907;28;20020;-75
2022/01/03 11:54:55;;;;;;;13.10;2.50;;;14.40;82.90;;;;;;5066924;28;20035;-74
2022/01/03 11:57:44;;;;;;;9.55;1.58;;;14.50;83.00;;;;;;5064989;28;20024;-74
2022/01/03 12:05:52;;;;;;;18.65;4.35;;;14.50;82.60;;;;;;5028823;28;20416;-75
2022/01/03 12:08:29;;;;;;;7.57;2.65;;;14.60;82.70;;;;;;5045860;28;20503;-75
2022/01/03 12:10:59;;;;;;;11.38;2.08;;;14.60;82.60;;;;;;5044817;28;20037;-75
2022/01/03 12:13:50;;;;;;;13.65;3.20;;;14.60;82.50;;;;;;5044377;28;20495;-75
2022/01/03 12:16:18;;;;;;;10.15;2.58;;;14.60;82.30;;;;;;5046067;28;20385;-74
2022/01/03 12:19:01;;;;;;;12.00;2.55;;;14.70;82.40;;;;;;5046299;28;20114;-74
2022/01/03 12:22:17;;;;;;;9.50;2.67;;;14.70;82.30;;;;;;5044415;28;20033;-75
2022/01/03 12:25:00;;;;;;;7.43;2.38;;;14.70;82.20;;;;;;5040762;28;20134;-74
2022/01/03 12:27:37;;;;;;;9.98;2.65;;;14.70;82.20;;;;;;5045732;28;20084;-75
2022/01/03 12:30:08;;;;;;;12.25;3.40;;;14.70;82.10;;;;;;5045492;28;20036;-74
2022/01/03 12:33:01;;;;;;;11.15;2.88;;;14.70;82.10;;;;;;5045683;28;20700;-75
2022/01/03 12:35:27;;;;;;;9.10;3.05;;;14.70;82.00;;;;;;5045296;28;20439;-75
2022/01/03 12:37:53;;;;;;;8.93;2.45;;;14.80;82.20;;;;;;5045785;28;20041;-74
2022/01/03 12:40:25;;;;;;;14.00;3.20;;;14.70;81.90;;;;;;5045753;28;20086;-75
2022/01/03 12:42:56;;;;;;;10.93;4.30;;;14.70;81.80;;;;;;5045030;28;20393;-76
2022/01/03 12:45:34;;;;;;;8.48;3.15;;;14.80;81.90;;;;;;5044727;28;20405;-76
2022/01/03 12:50:36;;;;;;;9.13;3.00;;;14.80;81.80;;;;;;5045579;28;20435;-74
2022/01/03 12:53:04;;;;;;;10.57;3.17;;;14.80;81.80;;;;;;5069386;28;20059;-75
2022/01/03 12:55:41;;;;;;;11.55;3.35;;;14.80;81.70;;;;;;5074125;28;20475;-73
2022/01/03 12:58:19;;;;;;;11.23;3.20;;;14.80;81.60;;;;;;5069676;28;20075;-74
2022/01/03 13:01:00;;;;;;;11.18;3.15;;;14.80;81.60;;;;;;5045509;28;20075;-74
2022/01/03 13:03:47;;;;;;;12.45;3.67;;;14.80;81.60;;;;;;5060823;28;20070;-74
2022/01/03 13:06:25;;;;;;;10.88;3.50;;;14.80;81.40;;;;;;5066131;28;20040;-74
2022/01/03 13:08:57;;;;;;;12.68;3.55;;;14.80;81.50;;;;;;5072712;28;20032;-74
2022/01/03 13:11:32;;;;;;;13.23;3.47;;;14.80;81.40;;;;;;5082297;28;20028;-74
2022/01/03 13:14:18;;;;;;;11.75;3.30;;;14.80;81.40;;;;;;5065718;28;20029;-75